Time;durP1;ratioP1;P1;durP2;ratioP2;P2;SDS_P1;SDS_P2;PMS_P1;PMS_P2;Temp;Humidity;BMP_temperature;BMP_pressure;BME280_temperature;BME280_humidity;BME280_pressure;Samples;Min_cycle;Max_cycle;Signal;HPM_P1;HPM_P2
2022/10/11 00:03:55;;;;;;;15.80;8.90;;;;;;;9.63;70.33;100064.66;216126;1274;139792;-64
2022/10/11 00:09:00;;;;;;;12.70;7.20;;;;;;;9.61;70.33;100063.37;215129;1274;141395;-64
2022/10/11 00:14:05;;;;;;;12.50;9.10;;;;;;;9.66;70.49;100068.36;215853;1274;141055;-65
2022/10/11 00:19:10;;;;;;;11.50;8.00;;;;;;;9.67;70.34;100072.29;215881;1274;141496;-63
2022/10/11 00:24:15;;;;;;;11.70;7.90;;;;;;;9.62;70.56;100068.40;215729;1274;140987;-63
2022/10/11 00:29:19;;;;;;;13.20;9.40;;;;;;;9.58;70.90;100071.14;215571;1274;139082;-63
2022/10/11 00:34:23;;;;;;;18.00;9.80;;;;;;;9.56;71.21;100071.61;214926;1274;141477;-63
2022/10/11 00:39:28;;;;;;;11.40;8.90;;;;;;;9.58;71.35;100073.55;215207;1273;141072;-63
2022/10/11 00:44:32;;;;;;;15.20;11.80;;;;;;;9.59;71.64;100069.86;215250;1274;141288;-64
2022/10/11 00:49:55;;;;;;;14.40;9.90;;;;;;;9.62;71.91;100062.34;214400;1274;140079;-63
2022/10/11 00:55:04;;;;;;;16.00;8.90;;;;;;;9.70;72.03;100067.63;216072;1274;141350;-64
2022/10/11 01:00:12;;;;;;;12.70;9.10;;;;;;;9.73;72.13;100065.52;215568;1274;140037;-64
2022/10/11 01:05:17;;;;;;;13.50;9.80;;;;;;;9.72;72.16;100066.02;215646;1274;140739;-64
2022/10/11 01:10:33;;;;;;;14.90;9.20;;;;;;;9.74;72.39;100064.60;214876;1274;140749;-63
2022/10/11 01:15:47;;;;;;;19.70;10.50;;;;;;;9.78;72.46;100059.51;215905;1272;141422;-63
2022/10/11 01:21:00;;;;;;;17.20;10.50;;;;;;;9.77;72.72;100055.72;215628;1276;140314;-63
2022/10/11 01:26:25;;;;;;;16.80;9.90;;;;;;;9.80;72.92;100058.12;216030;1274;139717;-65
2022/10/11 01:31:58;;;;;;;17.10;10.30;;;;;;;9.86;73.16;100058.84;216042;1274;140572;-65
2022/10/11 01:37:15;;;;;;;16.80;11.00;;;;;;;9.99;73.26;100063.05;215584;1274;141087;-65
2022/10/11 01:42:19;;;;;;;15.90;10.50;;;;;;;10.03;73.51;100058.59;216117;1274;141215;-65
2022/10/11 01:47:24;;;;;;;14.00;11.00;;;;;;;10.08;73.76;100059.95;216083;1274;139877;-65
2022/10/11 01:52:31;;;;;;;17.10;10.20;;;;;;;10.12;73.66;100062.68;215986;1274;140955;-64
2022/10/11 01:57:44;;;;;;;11.30;10.00;;;;;;;10.17;73.60;100065.73;215868;1274;141037;-64
2022/10/11 02:02:54;;;;;;;15.00;8.70;;;;;;;10.11;73.49;100063.46;215528;1274;140458;-64
2022/10/11 02:08:26;;;;;;;14.30;8.80;;;;;;;10.01;73.68;100065.40;214299;1274;140433;-64
2022/10/11 02:13:48;;;;;;;13.40;10.00;;;;;;;9.90;73.76;100060.98;215725;1275;140288;-66
2022/10/11 02:18:55;;;;;;;12.30;8.60;;;;;;;9.89;74.01;100064.71;215863;1274;140930;-67
2022/10/11 02:24:04;;;;;;;12.30;9.40;;;;;;;9.95;74.06;100065.45;215999;1274;140165;-67
2022/10/11 02:29:12;;;;;;;15.00;10.40;;;;;;;9.97;74.05;100063.80;215867;1274;141141;-67
2022/10/11 02:34:24;;;;;;;17.20;11.40;;;;;;;9.93;74.16;100069.11;214329;1277;140385;-62
2022/10/11 02:40:02;;;;;;;13.00;9.10;;;;;;;9.90;74.16;100073.96;215982;1274;141605;-66
2022/10/11 02:45:17;;;;;;;16.90;11.00;;;;;;;9.91;74.34;100078.17;215541;1274;140979;-67
2022/10/11 02:50:22;;;;;;;20.60;10.90;;;;;;;9.93;74.21;100079.66;214689;1275;141903;-64
2022/10/11 02:55:28;;;;;;;13.90;9.40;;;;;;;9.87;74.07;100080.02;214688;1274;140268;-65
2022/10/11 03:00:32;;;;;;;17.00;11.10;;;;;;;9.78;74.08;100082.73;214343;1274;139068;-64
2022/10/11 03:05:39;;;;;;;13.90;8.80;;;;;;;9.58;73.93;100086.86;216028;1274;140539;-64
2022/10/11 03:10:44;;;;;;;19.70;10.10;;;;;;;9.49;73.97;100089.89;215742;1274;140590;-64
2022/10/11 03:15:53;;;;;;;14.20;10.20;;;;;;;9.37;73.63;100091.61;215782;1274;140452;-64
2022/10/11 03:21:06;;;;;;;16.90;10.40;;;;;;;9.23;73.95;100099.16;215713;1275;140204;-63
2022/10/11 03:26:09;;;;;;;16.10;10.20;;;;;;;9.16;74.09;100104.84;215788;1274;140846;-64
2022/10/11 03:31:13;;;;;;;16.30;11.60;;;;;;;9.05;73.80;100104.39;215844;1274;141113;-64
2022/10/11 03:36:17;;;;;;;12.50;9.90;;;;;;;8.95;73.66;100121.05;215870;1275;144098;-64
2022/10/11 03:41:21;;;;;;;16.30;10.20;;;;;;;8.86;73.91;100129.42;215974;1274;142415;-64
2022/10/11 03:46:24;;;;;;;12.30;8.90;;;;;;;8.76;74.01;100136.27;215909;1274;141050;-64
2022/10/11 03:51:28;;;;;;;15.80;10.10;;;;;;;8.61;73.61;100142.10;215738;1274;142233;-64
2022/10/11 03:56:31;;;;;;;13.70;9.20;;;;;;;8.54;74.13;100147.59;215830;1274;140374;-64
2022/10/11 04:01:37;;;;;;;16.80;11.60;;;;;;;8.51;74.04;100152.10;215824;1274;140724;-63
2022/10/11 04:06:41;;;;;;;13.50;8.80;;;;;;;8.49;74.53;100148.59;215011;1274;141265;-65
2022/10/11 04:11:44;;;;;;;15.20;10.80;;;;;;;8.46;74.43;100154.86;216040;1273;140148;-65
2022/10/11 04:16:48;;;;;;;14.60;10.00;;;;;;;8.40;74.74;100164.59;215906;1274;141886;-64
2022/10/11 04:21:51;;;;;;;13.00;10.40;;;;;;;8.34;74.39;100165.83;215613;1274;140489;-66
2022/10/11 04:26:55;;;;;;;21.10;11.00;;;;;;;8.20;74.33;100164.91;215798;1273;140607;-66
2022/10/11 04:31:59;;;;;;;19.00;12.10;;;;;;;8.07;74.50;100167.23;215366;1274;140918;-65
2022/10/11 04:37:04;;;;;;;14.40;10.00;;;;;;;7.98;74.66;100179.58;215829;1274;140036;-64
2022/10/11 04:42:09;;;;;;;12.00;10.20;;;;;;;7.94;74.59;100179.42;215836;1272;140928;-65
2022/10/11 04:47:13;;;;;;;15.60;11.10;;;;;;;7.89;74.71;100186.31;215930;1274;142316;-64
2022/10/11 04:52:17;;;;;;;19.10;11.50;;;;;;;7.80;74.91;100196.97;213311;1274;140275;-64
2022/10/11 04:57:28;;;;;;;13.90;10.50;;;;;;;7.66;75.38;100203.22;214629;1274;141173;-64
2022/10/11 05:02:34;;;;;;;21.60;11.10;;;;;;;7.56;75.25;100203.30;215939;1274;141276;-64
2022/10/11 05:07:38;;;;;;;18.20;13.00;;;;;;;7.53;75.83;100206.69;215990;1274;140210;-62
2022/10/11 05:12:42;;;;;;;14.90;10.80;;;;;;;7.66;76.50;100215.34;215692;1274;140782;-63
2022/10/11 05:17:47;;;;;;;16.90;12.50;;;;;;;7.86;76.62;100229.02;215870;1274;140984;-63
2022/10/11 05:22:52;;;;;;;15.90;10.80;;;;;;;8.09;76.91;100237.29;215692;1273;140909;-66
2022/10/11 05:27:58;;;;;;;18.50;12.40;;;;;;;8.39;78.12;100245.23;215605;1274;140982;-65
2022/10/11 05:33:02;;;;;;;18.20;11.50;;;;;;;8.75;78.56;100249.98;215770;1274;140960;-66
2022/10/11 05:38:07;;;;;;;23.10;13.20;;;;;;;9.14;78.68;100256.94;215650;1274;141822;-66
2022/10/11 05:43:13;;;;;;;18.80;11.70;;;;;;;9.47;78.67;100264.65;215843;1274;140872;-67
2022/10/11 05:48:18;;;;;;;15.10;12.10;;;;;;;9.67;78.58;100276.27;215391;1274;644634;-66
2022/10/11 05:53:22;;;;;;;22.80;12.90;;;;;;;9.80;78.16;100283.05;215661;1274;140501;-67
2022/10/11 05:58:28;;;;;;;14.50;11.40;;;;;;;9.95;78.06;100286.95;215864;1274;140663;-67
2022/10/11 06:03:34;;;;;;;15.70;11.70;;;;;;;10.06;78.06;100299.25;215798;1274;140091;-68
2022/10/11 06:08:39;;;;;;;14.90;11.30;;;;;;;10.13;78.12;100312.20;215039;1275;141563;-65
2022/10/11 06:13:43;;;;;;;16.60;11.50;;;;;;;10.28;78.29;100328.77;215747;1274;140452;-65
2022/10/11 06:18:47;;;;;;;14.00;10.80;;;;;;;10.38;78.31;100338.15;214834;1274;140618;-66
2022/10/11 06:23:52;;;;;;;12.10;10.70;;;;;;;10.48;78.38;100348.46;214770;1275;141406;-66
2022/10/11 06:29:03;;;;;;;14.90;11.70;;;;;;;10.53;78.37;100353.30;215377;1274;140954;-66
2022/10/11 06:34:08;;;;;;;21.70;12.20;;;;;;;10.54;78.41;100360.97;215791;1276;141996;-66
2022/10/11 06:39:11;;;;;;;19.90;12.00;;;;;;;10.65;78.43;100368.46;215615;1276;140943;-66
2022/10/11 06:44:15;;;;;;;16.90;12.00;;;;;;;10.75;78.65;100371.59;214936;1274;142301;-66
2022/10/11 06:49:20;;;;;;;14.50;10.70;;;;;;;10.84;78.71;100382.74;215864;1274;140923;-65
2022/10/11 06:54:27;;;;;;;43.00;11.90;;;;;;;10.96;78.29;100394.29;215624;1274;142006;-66
2022/10/11 06:59:31;;;;;;;12.80;10.40;;;;;;;11.02;78.29;100397.04;214941;1274;140087;-65
2022/10/11 07:04:36;;;;;;;17.40;11.00;;;;;;;11.03;78.43;100407.64;214336;1275;140618;-66
2022/10/11 07:09:42;;;;;;;42.00;13.00;;;;;;;11.04;78.24;100412.73;215730;1276;140794;-65
2022/10/11 07:14:46;;;;;;;18.00;11.00;;;;;;;11.10;78.38;100419.81;213949;1274;140851;-66
2022/10/11 07:19:49;;;;;;;14.70;9.30;;;;;;;11.15;78.31;100426.95;215146;1274;140800;-67
2022/10/11 07:24:53;;;;;;;11.30;10.00;;;;;;;11.12;78.24;100435.52;215935;1274;140087;-66
2022/10/11 07:29:57;;;;;;;12.60;10.20;;;;;;;11.18;78.33;100440.64;216093;1274;141313;-66
2022/10/11 07:35:02;;;;;;;14.50;10.40;;;;;;;11.30;78.02;100449.50;215956;1274;140992;-68
2022/10/11 07:40:11;;;;;;;17.00;10.10;;;;;;;11.37;77.92;100458.45;215805;1274;142088;-69
2022/10/11 07:45:20;;;;;;;11.20;8.80;;;;;;;11.45;77.72;100466.11;215701;1275;141060;-67
2022/10/11 07:50:24;;;;;;;11.90;8.40;;;;;;;11.55;77.59;100472.02;215769;1274;140885;-68
2022/10/11 07:55:29;;;;;;;11.90;8.80;;;;;;;11.70;76.84;100479.11;215627;1274;140829;-68
2022/10/11 08:00:33;;;;;;;11.40;5.60;;;;;;;11.84;76.63;100487.08;215779;1274;143629;-67
2022/10/11 08:05:38;;;;;;;8.10;5.10;;;;;;;11.97;75.98;100481.30;215880;1274;140557;-67
2022/10/11 08:10:44;;;;;;;9.50;5.40;;;;;;;12.12;75.21;100484.98;215649;1274;141369;-68
2022/10/11 08:15:48;;;;;;;4.90;4.40;;;;;;;12.27;74.95;100498.24;215756;1274;141095;-66
2022/10/11 08:20:52;;;;;;;6.90;5.40;;;;;;;12.41;74.57;100500.23;215798;1274;140248;-65
2022/10/11 08:25:57;;;;;;;5.60;4.40;;;;;;;12.60;73.81;100508.39;215673;1274;140310;-64
2022/10/11 08:31:01;;;;;;;6.00;4.00;;;;;;;12.78;73.76;100506.13;216062;1274;141975;-65
2022/10/11 08:36:06;;;;;;;5.30;2.90;;;;;;;12.89;73.03;100507.67;216077;1274;142228;-66
2022/10/11 08:41:25;;;;;;;4.70;3.30;;;;;;;13.03;72.87;100511.19;215891;1274;139861;-68
2022/10/11 08:46:37;;;;;;;4.30;3.10;;;;;;;13.44;72.75;100511.39;215711;1274;140884;-68
2022/10/11 08:51:50;;;;;;;8.40;4.80;;;;;;;13.63;71.77;100521.02;215801;1274;141721;-66
2022/10/11 08:56:54;;;;;;;4.70;2.60;;;;;;;13.55;71.24;100525.85;215653;1274;140773;-67
2022/10/11 09:02:26;;;;;;;4.10;3.30;;;;;;;13.89;71.33;100530.55;215827;1274;140450;-65
2022/10/11 09:08:00;;;;;;;10.60;4.20;;;;;;;14.43;70.93;100526.37;215828;1274;141838;-67
2022/10/11 09:13:07;;;;;;;9.50;3.20;;;;;;;14.52;69.76;100535.75;215879;1274;139834;-65
2022/10/11 09:18:11;;;;;;;8.40;2.70;;;;;;;14.67;69.39;100541.73;214927;1274;141042;-65
2022/10/11 09:23:39;;;;;;;7.50;2.30;;;;;;;15.03;68.96;100544.46;215827;1274;142067;-64
2022/10/11 09:28:59;;;;;;;8.70;3.60;;;;;;;14.82;67.42;100551.63;214786;1274;140486;-65
2022/10/11 09:34:13;;;;;;;5.20;2.20;;;;;;;14.88;67.41;100554.20;215407;1274;141894;-67
2022/10/11 09:39:32;;;;;;;6.80;3.50;;;;;;;15.21;67.03;100551.95;215861;1274;140832;-65
2022/10/11 09:44:46;;;;;;;7.40;2.60;;;;;;;15.59;66.75;100554.02;215533;1274;141217;-65
2022/10/11 09:49:58;;;;;;;8.50;2.10;;;;;;;15.94;66.13;100553.73;216009;1274;141098;-65
2022/10/11 09:55:03;;;;;;;2.90;2.10;;;;;;;16.05;65.01;100557.06;215853;1274;141339;-64
2022/10/11 10:00:11;;;;;;;2.70;2.10;;;;;;;15.61;63.87;100566.63;215959;1274;140023;-67
2022/10/11 10:05:19;;;;;;;;;;;;;;;15.16;63.76;100569.06;216028;1274;139784;-66
2022/10/11 10:10:37;;;;;;;3.60;2.70;;;;;;;15.13;64.23;100571.23;216407;1274;126177;-66
2022/10/11 10:15:45;;;;;;;5.50;2.10;;;;;;;15.54;64.04;100569.05;214991;1274;140886;-66
2022/10/11 10:20:53;;;;;;;6.20;2.00;;;;;;;15.96;63.69;100568.08;215645;1274;143048;-66
2022/10/11 10:26:22;;;;;;;6.40;2.10;;;;;;;16.48;63.23;100569.11;215773;1274;141041;-66
2022/10/11 10:31:39;;;;;;;3.90;2.20;;;;;;;16.57;62.25;100577.23;215873;1274;139959;-66
2022/10/11 10:37:10;;;;;;;7.30;2.30;;;;;;;16.65;61.79;100581.05;215515;1274;139981;-66
2022/10/11 10:42:17;;;;;;;9.20;2.20;;;;;;;16.64;61.20;100582.80;215893;1274;140099;-66
2022/10/11 10:47:39;;;;;;;;;;;;;;;16.17;60.29;100591.20;215529;1274;140513;-66
2022/10/11 10:52:46;;;;;;;7.20;2.60;;;;;;;16.21;60.65;100590.17;216385;1276;127256;-67
2022/10/11 10:58:12;;;;;;;7.70;2.00;;;;;;;16.46;60.34;100588.48;215794;1276;140027;-66
2022/10/11 11:04:00;;;;;;;5.70;2.10;;;;;;;16.74;59.94;100596.17;215919;1276;139962;-63
2022/10/11 11:09:23;;;;;;;4.70;2.40;;;;;;;16.99;59.40;100591.81;212665;1276;140776;-65
2022/10/11 11:14:51;;;;;;;7.50;3.10;;;;;;;17.35;59.28;100592.21;215277;1276;140832;-66
2022/10/11 11:20:20;;;;;;;6.20;2.30;;;;;;;17.59;58.21;100600.42;215752;1277;140982;-66
2022/10/11 11:25:48;;;;;;;2.10;1.00;;;;;;;17.55;57.53;100603.70;215520;1275;141157;-67
2022/10/11 11:31:11;;;;;;;6.20;1.60;;;;;;;17.28;56.82;100603.91;215761;1277;142237;-65
2022/10/11 11:36:25;;;;;;;9.80;4.70;;;;;;;17.32;56.71;100606.43;215861;1276;139555;-64
2022/10/11 11:41:38;;;;;;;8.70;2.40;;;;;;;17.17;56.29;100608.84;214270;1276;140712;-63
2022/10/11 11:46:56;;;;;;;4.70;2.60;;;;;;;16.84;55.74;100613.40;215696;1276;141607;-65
2022/10/11 11:52:04;;;;;;;6.30;1.50;;;;;;;16.96;55.88;100607.52;215836;1276;143016;-65
2022/10/11 11:57:32;;;;;;;1.80;1.30;;;;;;;16.87;55.63;100606.73;215889;1276;143075;-65
2022/10/11 12:02:54;;;;;;;6.80;2.30;;;;;;;16.82;55.73;100605.01;215858;1277;139796;-65
2022/10/11 12:08:05;;;;;;;10.50;2.30;;;;;;;16.41;55.29;100613.91;215885;1275;140166;-65
2022/10/11 12:13:33;;;;;;;2.90;1.70;;;;;;;16.43;55.73;100614.16;215644;1276;139784;-65
2022/10/11 12:18:55;;;;;;;7.30;2.40;;;;;;;16.42;55.24;100613.52;215674;1275;140807;-65
2022/10/11 12:24:19;;;;;;;2.30;2.00;;;;;;;16.13;55.22;100616.60;215687;1276;161263;-64
2022/10/11 12:29:53;;;;;;;2.40;1.50;;;;;;;15.84;55.27;100615.66;215827;1277;140308;-65
2022/10/11 12:35:32;;;;;;;5.20;2.40;;;;;;;15.78;55.57;100615.61;215780;1276;139818;-65
2022/10/11 12:40:41;;;;;;;4.80;2.10;;;;;;;15.83;55.57;100616.89;215767;1275;141351;-65
2022/10/11 12:45:46;;;;;;;5.80;2.10;;;;;;;15.86;55.52;100617.63;214860;1276;140608;-66
2022/10/11 12:51:04;;;;;;;5.40;2.60;;;;;;;15.53;55.42;100619.77;215764;1277;139551;-65
2022/10/11 12:56:14;;;;;;;4.90;2.80;;;;;;;15.29;55.59;100623.15;215772;1276;139646;-65
2022/10/11 13:01:22;;;;;;;5.40;1.70;;;;;;;15.26;55.88;100616.77;215664;1275;139934;-65
2022/10/11 13:06:33;;;;;;;5.30;1.30;;;;;;;15.53;55.97;100621.17;215792;1277;140038;-66
2022/10/11 13:11:52;;;;;;;5.20;2.90;;;;;;;15.79;55.86;100620.13;215579;1276;141179;-65
2022/10/11 13:16:57;;;;;;;11.60;3.00;;;;;;;15.97;55.46;100625.21;214793;1277;140276;-64
2022/10/11 13:22:05;;;;;;;3.60;1.30;;;;;;;16.07;55.25;100627.43;215943;1275;140778;-65
2022/10/11 13:27:20;;;;;;;3.30;2.00;;;;;;;16.20;55.07;100632.61;215541;1274;140051;-65
2022/10/11 13:32:29;;;;;;;5.90;2.70;;;;;;;16.03;54.89;100633.95;215813;1274;139973;-64
2022/10/11 13:37:43;;;;;;;8.00;2.80;;;;;;;15.79;54.62;100634.59;216050;1271;142450;-65
2022/10/11 13:42:50;;;;;;;9.30;3.30;;;;;;;15.60;54.39;100639.30;215496;1274;139604;-65
2022/10/11 13:47:58;;;;;;;3.30;3.00;;;;;;;15.70;54.47;100633.33;216198;1273;140123;-65
2022/10/11 13:53:22;;;;;;;2.80;2.10;;;;;;;15.82;54.50;100630.50;215905;1274;139682;-65
2022/10/11 13:58:35;;;;;;;4.60;1.80;;;;;;;15.95;54.44;100634.91;216035;1274;139662;-65
2022/10/11 14:03:46;;;;;;;8.20;2.50;;;;;;;15.71;54.27;100640.71;216249;1274;140617;-63
2022/10/11 14:08:54;;;;;;;5.00;2.50;;;;;;;15.48;54.48;100646.98;215895;1274;141238;-65
2022/10/11 14:13:59;;;;;;;5.70;3.30;;;;;;;15.18;54.57;100649.24;215986;1274;141570;-65
2022/10/11 14:19:10;;;;;;;7.40;2.70;;;;;;;14.97;54.79;100650.31;216071;1274;141492;-64
2022/10/11 14:24:16;;;;;;;4.40;4.00;;;;;;;14.75;54.85;100651.67;215974;1274;139291;-63
2022/10/11 14:29:31;;;;;;;9.00;3.40;;;;;;;14.59;55.03;100649.21;215826;1273;141144;-64
2022/10/11 14:34:37;;;;;;;3.30;2.10;;;;;;;14.44;55.25;100649.24;215777;1274;141114;-65
2022/10/11 14:39:42;;;;;;;5.90;2.60;;;;;;;14.29;55.35;100652.14;215755;1276;139981;-64
2022/10/11 14:44:46;;;;;;;4.30;1.70;;;;;;;14.16;55.62;100656.14;215788;1274;141777;-65
2022/10/11 14:49:51;;;;;;;4.30;1.40;;;;;;;14.13;55.58;100651.64;215973;1274;141051;-64
2022/10/11 14:54:55;;;;;;;4.40;1.80;;;;;;;14.08;55.53;100655.55;215987;1273;139938;-64
2022/10/11 14:59:59;;;;;;;8.30;2.20;;;;;;;14.01;55.75;100658.09;214664;1273;140668;-65
2022/10/11 15:05:02;;;;;;;5.00;1.80;;;;;;;13.93;55.89;100659.84;215779;1274;140539;-66
2022/10/11 15:10:22;;;;;;;2.90;2.20;;;;;;;13.82;56.01;100664.56;216107;1273;140965;-66
2022/10/11 15:15:29;;;;;;;8.70;2.10;;;;;;;13.71;56.00;100666.03;215979;1274;140440;-66
2022/10/11 15:20:39;;;;;;;5.10;2.20;;;;;;;13.59;56.15;100670.23;215124;1274;140068;-66
2022/10/11 15:25:44;;;;;;;6.60;2.40;;;;;;;13.43;56.56;100672.60;216011;1272;140019;-65
2022/10/11 15:30:48;;;;;;;4.30;2.40;;;;;;;13.27;56.81;100675.83;216035;1273;141121;-66
2022/10/11 15:35:53;;;;;;;8.50;2.90;;;;;;;13.07;57.15;100681.73;214971;1273;140680;-65
2022/10/11 15:40:58;;;;;;;11.70;4.10;;;;;;;12.87;58.04;100686.26;215933;1273;139776;-66
2022/10/11 15:46:06;;;;;;;5.60;2.40;;;;;;;12.62;58.46;100686.58;216092;1272;140944;-64
2022/10/11 15:51:11;;;;;;;4.60;3.60;;;;;;;12.35;59.09;100689.98;216003;1273;139605;-65
2022/10/11 15:56:17;;;;;;;7.50;3.50;;;;;;;12.06;59.31;100695.59;215808;1274;140525;-65
2022/10/11 16:01:23;;;;;;;5.70;3.30;;;;;;;11.75;59.86;100702.38;216131;1273;140799;-64
2022/10/11 16:06:27;;;;;;;6.50;2.80;;;;;;;11.41;60.22;100704.92;216009;1273;139822;-65
2022/10/11 16:11:33;;;;;;;12.00;2.80;;;;;;;11.07;61.00;100713.55;216012;1272;141570;-65
2022/10/11 16:16:37;;;;;;;5.90;2.30;;;;;;;10.86;61.26;100714.24;216088;1273;140908;-65
2022/10/11 16:21:40;;;;;;;9.10;2.50;;;;;;;10.57;61.67;100718.95;216209;1272;140514;-64
2022/10/11 16:26:43;;;;;;;5.90;2.70;;;;;;;10.28;62.12;100722.65;215893;1274;140657;-64
2022/10/11 16:31:48;;;;;;;13.00;4.00;;;;;;;10.05;62.51;100721.52;215967;1272;140084;-65
2022/10/11 16:36:53;;;;;;;5.30;2.10;;;;;;;9.81;63.04;100725.47;215998;1273;140180;-63
2022/10/11 16:41:57;;;;;;;5.40;3.30;;;;;;;9.49;63.30;100730.66;215957;1273;140908;-65
2022/10/11 16:47:03;;;;;;;22.10;6.10;;;;;;;9.21;63.72;100735.20;215934;1273;141085;-65
2022/10/11 16:52:13;;;;;;;18.00;6.90;;;;;;;9.11;64.27;100736.20;216140;1274;142140;-65
2022/10/11 16:57:18;;;;;;;10.70;4.00;;;;;;;9.05;64.51;100738.48;216145;1274;142459;-65
2022/10/11 17:02:26;;;;;;;32.30;9.60;;;;;;;8.92;64.96;100741.08;213967;1273;140998;-64
2022/10/11 17:07:34;;;;;;;22.70;9.50;;;;;;;8.85;65.51;100743.55;215922;1274;141433;-67
2022/10/11 17:12:39;;;;;;;19.50;6.40;;;;;;;8.64;65.20;100744.09;215723;1274;140410;-67
2022/10/11 17:17:43;;;;;;;25.30;9.30;;;;;;;8.39;65.71;100747.63;214767;1274;140646;-63
2022/10/11 17:22:50;;;;;;;13.10;5.70;;;;;;;8.31;66.00;100752.25;213741;1274;140226;-63
2022/10/11 17:27:55;;;;;;;15.80;6.40;;;;;;;8.26;66.44;100751.77;213302;1274;141304;-63
2022/10/11 17:33:00;;;;;;;16.00;6.40;;;;;;;8.16;66.54;100754.90;215114;1274;140132;-63
2022/10/11 17:38:06;;;;;;;11.10;7.50;;;;;;;7.92;66.35;100752.42;216071;1274;139933;-63
2022/10/11 17:43:10;;;;;;;46.10;20.30;;;;;;;7.67;67.40;100753.65;215948;1274;139233;-65
2022/10/11 17:48:14;;;;;;;96.20;38.60;;;;;;;7.54;67.45;100755.09;215527;1274;426846;-63
2022/10/11 17:53:18;;;;;;;62.20;30.10;;;;;;;7.51;67.87;100754.70;215870;1274;141669;-63
2022/10/11 17:58:22;;;;;;;59.80;25.60;;;;;;;7.56;68.07;100757.68;215901;1273;140162;-63
2022/10/11 18:03:29;;;;;;;51.50;24.00;;;;;;;7.51;67.80;100759.38;215970;1274;139899;-63
2022/10/11 18:08:35;;;;;;;38.80;16.40;;;;;;;7.33;68.17;100766.80;215814;1273;140356;-63
2022/10/11 18:13:46;;;;;;;31.10;14.50;;;;;;;7.16;68.18;100767.92;216132;1274;139410;-64
2022/10/11 18:18:50;;;;;;;28.90;13.20;;;;;;;6.96;68.37;100769.25;215967;1273;140603;-64
2022/10/11 18:23:58;;;;;;;26.60;14.30;;;;;;;6.89;68.59;100769.94;216104;1273;140234;-64
2022/10/11 18:29:02;;;;;;;;;;;;;;;6.84;68.88;100766.73;215793;1272;140575;-64
2022/10/11 18:34:09;;;;;;;21.90;13.60;;;;;;;6.65;68.79;100765.46;216724;1272;126084;-63
2022/10/11 18:39:13;;;;;;;21.80;11.70;;;;;;;6.45;69.13;100765.90;215797;1274;139714;-65
2022/10/11 18:44:17;;;;;;;21.50;12.00;;;;;;;6.27;69.10;100769.39;214058;1274;150600;-64
2022/10/11 18:49:22;;;;;;;21.00;12.40;;;;;;;6.18;69.82;100770.35;216004;1274;141068;-67
2022/10/11 18:54:26;;;;;;;21.30;11.10;;;;;;;6.19;69.66;100775.20;215990;1274;140653;-67
2022/10/11 18:59:31;;;;;;;19.60;12.40;;;;;;;6.10;69.79;100774.30;216047;1273;142536;-67
2022/10/11 19:04:38;;;;;;;18.40;11.40;;;;;;;5.99;70.08;100775.63;216144;1274;140609;-64
2022/10/11 19:09:49;;;;;;;17.60;12.30;;;;;;;5.90;70.40;100779.10;214795;1274;139493;-65
2022/10/11 19:14:54;;;;;;;28.10;14.60;;;;;;;5.86;70.65;100776.47;214995;1274;139788;-64
2022/10/11 19:19:59;;;;;;;23.20;13.60;;;;;;;5.81;70.41;100776.52;214979;1275;140096;-65
2022/10/11 19:25:06;;;;;;;25.80;14.90;;;;;;;5.68;70.34;100781.13;214834;1274;140715;-65
2022/10/11 19:30:11;;;;;;;23.50;15.30;;;;;;;5.55;70.46;100783.00;215873;1273;141975;-65
2022/10/11 19:35:17;;;;;;;24.30;16.20;;;;;;;5.45;70.90;100782.95;215975;1274;140558;-64
2022/10/11 19:40:24;;;;;;;18.90;12.50;;;;;;;5.39;71.11;100784.02;215698;1274;140692;-64
2022/10/11 19:45:34;;;;;;;22.80;14.20;;;;;;;5.32;71.15;100787.42;216263;1273;141200;-64
2022/10/11 19:50:38;;;;;;;34.90;21.90;;;;;;;5.26;70.88;100788.27;216061;1274;141481;-65
2022/10/11 19:55:42;;;;;;;47.50;26.30;;;;;;;5.20;71.11;100788.25;216033;1274;140145;-64
2022/10/11 20:00:58;;;;;;;36.50;23.40;;;;;;;5.15;71.19;100793.65;216056;1274;140211;-65
2022/10/11 20:06:07;;;;;;;30.00;17.00;;;;;;;4.97;71.19;100798.73;215500;1273;141086;-66
2022/10/11 20:11:15;;;;;;;37.30;19.90;;;;;;;4.79;71.22;100797.70;215933;1273;142031;-64
2022/10/11 20:16:25;;;;;;;47.10;23.20;;;;;;;4.77;71.45;100800.15;216074;1274;139896;-65
2022/10/11 20:21:31;;;;;;;33.10;22.10;;;;;;;4.70;71.65;100799.35;216073;1273;139936;-65
2022/10/11 20:26:36;;;;;;;31.70;20.10;;;;;;;4.60;71.59;100801.00;216020;1273;140319;-65
2022/10/11 20:31:42;;;;;;;39.50;22.40;;;;;;;4.50;72.14;100803.35;215986;1274;140037;-63
2022/10/11 20:36:46;;;;;;;40.80;24.20;;;;;;;4.52;72.36;100799.52;215966;1274;139519;-65
2022/10/11 20:41:52;;;;;;;47.00;25.90;;;;;;;4.57;72.05;100803.44;215245;1274;140288;-65
2022/10/11 20:46:57;;;;;;;58.20;29.70;;;;;;;4.51;71.86;100809.48;216051;1272;141086;-64
2022/10/11 20:52:07;;;;;;;42.10;26.40;;;;;;;4.38;71.97;100812.41;215987;1274;140372;-64
2022/10/11 20:57:10;;;;;;;40.30;22.40;;;;;;;4.23;72.10;100812.02;215920;1273;141321;-63
2022/10/11 21:02:14;;;;;;;58.10;25.70;;;;;;;4.05;72.09;100813.58;215932;1274;141946;-62
2022/10/11 21:07:20;;;;;;;59.60;29.90;;;;;;;4.04;72.46;100822.02;216024;1274;141013;-63
2022/10/11 21:12:24;;;;;;;66.30;26.90;;;;;;;4.00;72.59;100823.61;215896;1274;139841;-62
2022/10/11 21:17:28;;;;;;;62.70;25.70;;;;;;;3.91;72.82;100822.47;216010;1274;139578;-63
2022/10/11 21:22:32;;;;;;;55.70;30.70;;;;;;;3.82;73.02;100820.14;213506;1274;140151;-63
2022/10/11 21:27:37;;;;;;;49.80;23.80;;;;;;;3.82;73.42;100826.30;216067;1273;139618;-64
2022/10/11 21:32:43;;;;;;;57.10;24.70;;;;;;;3.87;73.08;100827.94;215766;1274;141482;-68
2022/10/11 21:37:47;;;;;;;49.20;24.70;;;;;;;3.84;72.95;100829.81;215936;1274;139961;-67
2022/10/11 21:42:53;;;;;;;56.70;24.20;;;;;;;3.84;73.27;100828.06;215721;1274;141403;-68
2022/10/11 21:47:57;;;;;;;50.90;22.80;;;;;;;3.82;73.32;100829.15;213137;1274;140058;-62
2022/10/11 21:53:01;;;;;;;46.00;22.80;;;;;;;3.71;73.22;100831.70;215929;1274;140181;-65
2022/10/11 21:58:05;;;;;;;45.50;23.10;;;;;;;3.57;73.15;100828.98;216085;1274;139568;-65
2022/10/11 22:03:08;;;;;;;39.80;21.30;;;;;;;3.52;73.30;100830.70;215978;1274;140183;-64
2022/10/11 22:08:19;;;;;;;41.30;20.60;;;;;;;3.49;73.28;100835.08;215970;1274;141478;-66
2022/10/11 22:13:25;;;;;;;35.60;19.90;;;;;;;3.42;73.52;100835.13;215892;1274;141114;-65
2022/10/11 22:18:30;;;;;;;32.40;18.10;;;;;;;3.33;73.47;100837.09;215944;1274;141289;-65
2022/10/11 22:23:36;;;;;;;39.20;21.50;;;;;;;3.24;73.62;100834.79;215818;1274;140954;-66
2022/10/11 22:28:40;;;;;;;39.40;22.00;;;;;;;3.25;73.55;100833.05;215913;1274;161735;-66
2022/10/11 22:33:44;;;;;;;32.40;22.70;;;;;;;3.27;73.97;100839.17;215942;1274;141263;-64
2022/10/11 22:38:53;;;;;;;29.80;20.80;;;;;;;3.28;73.76;100845.24;215869;1274;141562;-65
2022/10/11 22:43:56;;;;;;;27.40;16.60;;;;;;;3.20;73.75;100843.99;215939;1274;141072;-65
2022/10/11 22:49:00;;;;;;;39.10;21.20;;;;;;;3.09;73.65;100847.11;215846;1274;141217;-64
2022/10/11 22:54:04;;;;;;;46.40;27.00;;;;;;;3.09;73.82;100849.87;215993;1272;140963;-66
2022/10/11 22:59:08;;;;;;;48.50;27.10;;;;;;;3.14;74.34;100849.66;213730;1273;141363;-63
2022/10/11 23:04:12;;;;;;;33.20;22.30;;;;;;;3.10;74.20;100848.30;216282;1274;139924;-61
2022/10/11 23:09:16;;;;;;;34.10;20.00;;;;;;;2.97;74.48;100847.54;215905;1274;139850;-62
2022/10/11 23:14:20;;;;;;;38.80;23.10;;;;;;;2.89;74.28;100844.73;215731;1274;140418;-62